James L. Oberstar — WDC6154 — position and weather

sailwx.info

Track history (hours):
 
Tides and Currents Weather Stations Pressure Air Temp Water Temp Dewpoint Dewpoint Depression Visibility Wind Speed Wind Dir Waves Ship Positions

James L. Oberstar

Owner: Destin Trading Corporation, harahan, LA. More information available from US FCC via Universal Licensing System and Coast Guard Vessel Documentation Center.

Last reported at 2015-Jan-26 04:16 UTC. Time now 2015-Jan-26 12:33 UTC.
Position N 29°45' W 095°06'.

Length 26 m; draft 2.8 m.

Type: Towing. MMSI: 367052120.

Date/timePositionNaut miles runAvg speedWind from/ knotsBaromVisibWave heightAir tempDewpointWater temp
2015-Jan-26 04:16N 29°45' W 095°06'2 3.1
2015-Jan-26 03:32N 29°44' W 095°03'4 4.2
2015-Jan-26 02:34N 29°42' W 094°60'6 5.5
2015-Jan-26 01:33N 29°37' W 094°57'6 6.0
2015-Jan-26 00:34N 29°32' W 094°53'7 6.3
2015-Jan-25 23:30N 29°26' W 094°50'48 4.2
2015-Jan-25 12:12N 29°47' W 094°01'  
2015-Jan-22 17:32N 29°45' W 091°35'7 5.8
2015-Jan-22 16:24N 29°41' W 091°29'5 5.7
2015-Jan-22 15:33N 29°39' W 091°24'6 6.1
2015-Jan-22 14:33N 29°39' W 091°17'5 5.1
2015-Jan-22 13:33N 29°41' W 091°11'2 2.4
2015-Jan-22 12:33N 29°41' W 091°09'4 3.5
2015-Jan-22 11:33N 29°38' W 091°06'5 4.5
2015-Jan-22 10:33N 29°37' W 091°00'5 4.6
2015-Jan-22 09:33N 29°34' W 090°57'10 4.7
2015-Jan-22 07:25N 29°33' W 090°45'46 2.2
2015-Jan-21 10:30N 29°56' W 089°59'5 5.5
2015-Jan-21 09:29N 29°55' W 090°05'  
2015-Jan-17 08:31N 29°59' W 090°24'  
Track history (hours):
 
Tides and Currents Weather Stations Pressure Air Temp Water Temp Dewpoint Dewpoint Depression Visibility Wind Speed Wind Dir Waves Ship Positions

James L. Oberstar

Owner: Destin Trading Corporation, harahan, LA. More information available from US FCC via Universal Licensing System and Coast Guard Vessel Documentation Center.

Last reported at 2015-Jan-26 04:16 UTC. Time now 2015-Jan-26 12:33 UTC.
Position N 29°45' W 095°06'.

Length 26 m; draft 2.8 m.

Type: Towing. MMSI: 367052120.

Date/timePositionNaut miles runAvg speedWind from/ knotsBaromVisibWave heightAir tempDewpointWater temp
2015-Jan-26 04:16N 29°45' W 095°06'2 3.1
2015-Jan-26 03:32N 29°44' W 095°03'4 4.2
2015-Jan-26 02:34N 29°42' W 094°60'6 5.5
2015-Jan-26 01:33N 29°37' W 094°57'6 6.0
2015-Jan-26 00:34N 29°32' W 094°53'7 6.3
2015-Jan-25 23:30N 29°26' W 094°50'48 4.2
2015-Jan-25 12:12N 29°47' W 094°01'  
2015-Jan-22 17:32N 29°45' W 091°35'7 5.8
2015-Jan-22 16:24N 29°41' W 091°29'5 5.7
2015-Jan-22 15:33N 29°39' W 091°24'6 6.1
2015-Jan-22 14:33N 29°39' W 091°17'5 5.1
2015-Jan-22 13:33N 29°41' W 091°11'2 2.4
2015-Jan-22 12:33N 29°41' W 091°09'4 3.5
2015-Jan-22 11:33N 29°38' W 091°06'5 4.5
2015-Jan-22 10:33N 29°37' W 091°00'5 4.6
2015-Jan-22 09:33N 29°34' W 090°57'10 4.7
2015-Jan-22 07:25N 29°33' W 090°45'46 2.2
2015-Jan-21 10:30N 29°56' W 089°59'5 5.5
2015-Jan-21 09:29N 29°55' W 090°05'  
2015-Jan-17 08:31N 29°59' W 090°24'  

Dump ship's entire track history